Time;durP1;ratioP1;P1;durP2;ratioP2;P2;SDS_P1;SDS_P2;PMS_P1;PMS_P2;Temp;Humidity;BMP_temperature;BMP_pressure;BME280_temperature;BME280_humidity;BME280_pressure;Samples;Min_cycle;Max_cycle;Signal;HPM_P1;HPM_P2
2023/07/18 00:01:45;;;;;;;5.70;3.33;;;;;;;27.61;41.36;99730.16;5030374;28;20087;-43
2023/07/18 00:04:10;;;;;;;4.60;3.05;;;;;;;27.43;41.24;99730.09;5030167;28;20013;-42
2023/07/18 00:06:38;;;;;;;3.97;3.15;;;;;;;27.21;41.66;99728.22;5030682;28;20542;-43
2023/07/18 00:09:04;;;;;;;4.00;3.25;;;;;;;27.45;41.14;99724.31;5030217;28;20034;-44
2023/07/18 00:11:29;;;;;;;4.43;3.13;;;;;;;27.57;41.00;99730.00;5030085;28;20057;-42
2023/07/18 00:13:55;;;;;;;3.95;3.13;;;;;;;27.52;40.76;99729.34;5029984;28;20056;-44
2023/07/18 00:16:20;;;;;;;4.93;3.30;;;;;;;26.88;42.01;99733.19;5030088;28;20071;-42
2023/07/18 00:18:46;;;;;;;4.80;3.47;;;;;;;26.94;42.06;99731.13;5029865;28;20409;-42
2023/07/18 00:21:12;;;;;;;4.72;3.30;;;;;;;27.05;41.88;99725.09;5029106;28;20021;-46
2023/07/18 00:23:37;;;;;;;4.75;3.10;;;;;;;27.06;42.04;99726.72;5030192;28;20029;-45
2023/07/18 00:26:03;;;;;;;5.60;3.10;;;;;;;27.14;41.20;99716.94;5030339;28;20029;-43
2023/07/18 00:28:28;;;;;;;5.28;3.10;;;;;;;27.61;40.52;99727.44;5030358;28;20045;-42
2023/07/18 00:30:54;;;;;;;5.30;3.50;;;;;;;27.16;41.58;99731.09;5030186;28;20028;-42
2023/07/18 00:33:19;;;;;;;5.18;3.28;;;;;;;26.77;42.31;99731.84;5029454;28;20440;-45
2023/07/18 00:35:44;;;;;;;4.20;3.17;;;;;;;26.82;42.18;99735.25;5029753;28;20478;-44
2023/07/18 00:38:13;;;;;;;4.15;3.53;;;;;;;26.85;42.19;99725.66;5029647;28;20025;-42
2023/07/18 00:40:40;;;;;;;5.25;3.20;;;;;;;26.94;41.96;99721.03;5029598;28;20036;-44
2023/07/18 00:43:15;;;;;;;4.70;3.17;;;;;;;26.83;42.27;99720.50;5029651;28;20509;-45
2023/07/18 00:45:42;;;;;;;4.60;3.30;;;;;;;26.97;42.02;99714.94;5030088;28;20079;-44
2023/07/18 00:48:09;;;;;;;4.28;3.20;;;;;;;26.95;42.09;99713.66;5030352;28;20039;-47
2023/07/18 00:50:35;;;;;;;4.93;3.10;;;;;;;27.09;41.61;99726.09;5030434;28;20037;-44
2023/07/18 00:53:01;;;;;;;5.50;3.17;;;;;;;27.17;41.59;99726.44;5030449;28;20029;-42
2023/07/18 00:55:27;;;;;;;5.25;3.60;;;;;;;27.16;41.44;99722.91;5029729;28;20021;-43
2023/07/18 00:57:55;;;;;;;4.82;3.15;;;;;;;27.05;41.54;99721.56;5029786;28;20034;-43
2023/07/18 01:00:22;;;;;;;4.63;3.25;;;;;;;27.09;41.62;99690.59;5030120;28;20155;-43
2023/07/18 01:02:49;;;;;;;4.65;3.35;;;;;;;27.32;41.34;99709.66;5030420;28;20029;-44
2023/07/18 01:05:17;;;;;;;4.20;3.10;;;;;;;27.42;41.26;99706.63;5030211;28;20032;-42
2023/07/18 01:07:44;;;;;;;3.85;3.10;;;;;;;27.48;41.25;99704.56;5030051;28;20110;-43
2023/07/18 01:10:28;;;;;;;6.00;3.20;;;;;;;27.22;41.87;99702.50;5029786;28;20037;-42
2023/07/18 01:12:55;;;;;;;3.75;3.30;;;;;;;27.77;40.54;99712.19;5029187;28;20556;-43
2023/07/18 01:15:22;;;;;;;4.50;2.85;;;;;;;26.90;42.37;99699.03;5029319;28;20068;-42
2023/07/18 01:17:48;;;;;;;4.07;3.05;;;;;;;26.62;42.64;99697.59;5028974;28;20033;-42
2023/07/18 01:20:18;;;;;;;3.83;3.17;;;;;;;26.59;43.09;99682.63;5029641;28;20116;-44
2023/07/18 01:22:44;;;;;;;4.47;2.92;;;;;;;26.76;42.83;99681.91;5029593;28;20099;-41
2023/07/18 01:25:11;;;;;;;4.65;3.20;;;;;;;26.75;43.05;99691.25;5029852;28;20025;-42
2023/07/18 01:27:38;;;;;;;6.25;3.30;;;;;;;26.39;43.93;99672.19;5030127;28;20030;-45
2023/07/18 01:30:05;;;;;;;5.55;3.35;;;;;;;26.28;43.79;99672.44;5030064;28;20109;-44
2023/07/18 01:32:31;;;;;;;4.32;3.00;;;;;;;26.24;43.97;99681.56;5029714;28;20063;-43
2023/07/18 01:34:58;;;;;;;7.22;3.55;;;;;;;26.22;43.75;99675.63;5029135;28;20049;-45
2023/07/18 01:37:24;;;;;;;4.28;3.50;;;;;;;25.96;44.34;99670.75;5028946;28;20097;-43
2023/07/18 01:39:50;;;;;;;10.80;3.70;;;;;;;25.93;44.71;99682.25;5028999;28;20711;-46
2023/07/18 01:42:16;;;;;;;4.45;3.70;;;;;;;26.13;44.33;99681.00;5028694;28;20036;-45
2023/07/18 01:44:43;;;;;;;5.78;3.65;;;;;;;26.09;44.55;99667.16;5029695;28;20029;-43
2023/07/18 01:47:08;;;;;;;5.55;3.72;;;;;;;26.06;44.36;99672.44;5033688;28;20036;-44
2023/07/18 01:49:35;;;;;;;4.70;3.80;;;;;;;25.87;44.74;99667.91;5033719;28;20029;-43
2023/07/18 01:52:03;;;;;;;4.53;3.70;;;;;;;25.86;44.94;99669.03;5033215;28;20108;-44
2023/07/18 01:54:29;;;;;;;5.13;3.42;;;;;;;25.67;44.98;99668.38;5032656;28;20042;-43
2023/07/18 01:56:55;;;;;;;4.75;3.42;;;;;;;25.57;45.01;99663.97;5032638;28;20048;-42
2023/07/18 01:59:22;;;;;;;4.65;3.50;;;;;;;25.37;45.94;99667.91;5032134;28;20481;-43
2023/07/18 02:01:48;;;;;;;5.18;3.53;;;;;;;25.46;45.55;99662.56;5032423;28;20022;-43
2023/07/18 02:04:14;;;;;;;5.30;3.60;;;;;;;25.43;45.34;99658.50;5032722;28;20032;-43
2023/07/18 02:06:40;;;;;;;6.07;3.50;;;;;;;25.33;45.63;99656.00;5032090;28;20057;-44
2023/07/18 02:09:06;;;;;;;5.72;3.47;;;;;;;25.45;45.75;99666.38;5032075;28;20026;-44
2023/07/18 02:11:32;;;;;;;3.70;3.30;;;;;;;25.50;45.42;99658.91;5032512;28;20121;-43
2023/07/18 02:13:58;;;;;;;5.60;4.00;;;;;;;25.53;45.29;99662.94;5032842;28;20523;-43
2023/07/18 02:16:23;;;;;;;5.13;3.80;;;;;;;26.04;44.10;99671.94;5032520;28;20385;-43
2023/07/18 02:18:49;;;;;;;5.05;3.45;;;;;;;25.68;45.03;99662.63;5032265;28;20022;-43
2023/07/18 02:21:14;;;;;;;5.57;3.45;;;;;;;25.79;44.77;99662.41;5032425;28;20030;-43
2023/07/18 02:23:39;;;;;;;4.22;3.42;;;;;;;25.82;44.54;99659.88;5032319;28;20029;-43
2023/07/18 02:26:05;;;;;;;5.45;3.60;;;;;;;25.75;44.69;99668.44;5032553;28;20097;-42
2023/07/18 02:28:30;;;;;;;6.18;3.60;;;;;;;25.71;44.98;99667.44;5032322;28;20053;-46
2023/07/18 02:30:56;;;;;;;5.53;3.78;;;;;;;25.99;44.27;99675.59;5031965;28;20465;-42
2023/07/18 02:33:21;;;;;;;5.22;3.88;;;;;;;25.96;44.28;99681.66;5030230;28;20033;-44
2023/07/18 02:35:50;;;;;;;4.57;3.55;;;;;;;25.62;44.83;99677.44;5030914;28;20030;-41
2023/07/18 02:38:15;;;;;;;5.38;3.42;;;;;;;25.54;45.25;99678.97;5031728;28;20028;-44
2023/07/18 02:40:44;;;;;;;5.22;3.28;;;;;;;25.44;45.43;99681.13;5031832;28;20503;-46
2023/07/18 02:43:09;;;;;;;4.90;3.50;;;;;;;25.62;45.34;99669.28;5032041;28;20033;-42
2023/07/18 02:45:35;;;;;;;4.80;3.53;;;;;;;25.97;44.67;99683.28;5032455;28;20033;-45
2023/07/18 02:48:00;;;;;;;4.28;3.40;;;;;;;26.23;44.01;99688.13;5032508;28;20036;-45
2023/07/18 02:50:26;;;;;;;5.00;3.50;;;;;;;26.52;43.24;99685.78;5032006;28;20404;-43
2023/07/18 02:52:51;;;;;;;6.05;3.65;;;;;;;25.90;44.43;99674.69;5031473;28;20062;-43
2023/07/18 02:55:17;;;;;;;4.13;3.20;;;;;;;25.68;45.08;99681.69;5031242;28;20029;-42
2023/07/18 02:57:42;;;;;;;4.25;3.60;;;;;;;25.34;45.88;99680.22;5031202;28;20465;-43
2023/07/18 03:00:19;;;;;;;9.13;4.10;;;;;;;25.52;45.70;99675.75;5031707;28;20018;-43
2023/07/18 03:02:46;;;;;;;8.65;3.70;;;;;;;25.68;45.31;99683.59;5031857;28;20037;-42
2023/07/18 03:05:11;;;;;;;6.47;3.63;;;;;;;25.92;44.84;99686.09;5030304;28;20485;-46
2023/07/18 03:07:37;;;;;;;3.90;3.28;;;;;;;26.02;44.28;99688.59;5031680;28;20036;-42
2023/07/18 03:10:04;;;;;;;4.30;3.30;;;;;;;26.17;44.21;99690.16;5032186;28;20037;-44
2023/07/18 03:12:30;;;;;;;5.90;3.33;;;;;;;26.13;44.31;99695.41;5031269;28;20050;-44
2023/07/18 03:14:55;;;;;;;6.00;3.40;;;;;;;26.18;44.06;99693.69;5031633;28;20041;-44
2023/07/18 03:17:21;;;;;;;5.93;3.50;;;;;;;26.24;43.97;99687.81;5031845;28;20017;-42
2023/07/18 03:19:47;;;;;;;7.80;3.58;;;;;;;26.18;44.25;99685.50;5031339;28;20060;-43
2023/07/18 03:22:13;;;;;;;5.60;4.28;;;;;;;26.40;43.75;99690.19;5031599;28;20404;-42
2023/07/18 03:24:38;;;;;;;11.35;5.50;;;;;;;26.51;43.19;99692.34;5031370;28;20052;-44
2023/07/18 03:27:04;;;;;;;7.03;4.88;;;;;;;26.68;42.76;99694.41;5031264;28;20025;-42
2023/07/18 03:29:30;;;;;;;7.97;6.03;;;;;;;26.57;42.69;99694.94;5031553;28;20072;-43
2023/07/18 03:31:55;;;;;;;7.38;5.97;;;;;;;26.65;42.81;99702.41;5031687;28;20136;-43
2023/07/18 03:34:21;;;;;;;11.10;5.75;;;;;;;26.77;42.70;99707.28;5031086;28;20451;-41
2023/07/18 03:36:46;;;;;;;9.43;5.50;;;;;;;26.72;43.22;99706.28;5029873;28;20083;-42
2023/07/18 03:39:13;;;;;;;8.70;5.43;;;;;;;26.86;43.35;99705.41;5030327;28;20088;-43
2023/07/18 03:41:39;;;;;;;8.15;5.22;;;;;;;26.88;43.11;99703.16;5030625;28;20048;-41
2023/07/18 03:44:13;;;;;;;8.23;4.97;;;;;;;26.69;44.01;99703.38;5030757;28;20541;-44
2023/07/18 03:46:44;;;;;;;9.88;6.70;;;;;;;26.60;44.26;99705.25;5030831;28;20029;-44
2023/07/18 03:49:29;;;;;;;10.88;6.50;;;;;;;26.57;44.58;99705.84;5029731;28;20029;-42
2023/07/18 03:52:05;;;;;;;8.55;5.70;;;;;;;26.77;43.63;99710.84;5030401;28;20072;-44
2023/07/18 03:54:38;;;;;;;6.65;4.75;;;;;;;27.06;42.73;99713.06;5030458;28;20026;-44
2023/07/18 09:28:31;;;;;;;8.57;6.47;;;;;;;41.17;24.92;99509.59;5258847;23;20125;-44
2023/07/18 09:30:57;;;;;;;10.98;6.95;;;;;;;41.71;24.37;99516.50;4842109;29;20038;-45
2023/07/18 09:33:24;;;;;;;9.77;6.97;;;;;;;41.94;23.90;99508.16;4842161;29;20481;-48
2023/07/18 09:35:51;;;;;;;;;;;;;;;42.18;24.38;99502.63;4842196;29;20026;-45
2023/07/18 09:38:18;;;;;;;8.45;7.00;;;;;;;42.05;23.79;99496.06;4841276;29;19935;-46
2023/07/18 09:40:44;;;;;;;8.00;7.05;;;;;;;41.31;24.82;99505.84;4841957;29;20057;-46
2023/07/18 09:43:12;;;;;;;7.63;6.72;;;;;;;41.35;24.71;99500.22;4841756;29;20109;-45
2023/07/18 09:45:39;;;;;;;9.68;7.50;;;;;;;41.77;24.39;99490.47;4825119;29;20022;-46
2023/07/18 09:48:05;;;;;;;9.32;7.55;;;;;;;42.09;23.61;99491.97;4841745;29;20474;-44
2023/07/18 09:50:32;;;;;;;8.07;7.28;;;;;;;42.11;23.78;99481.16;4842011;29;20143;-46
2023/07/18 09:53:01;;;;;;;9.23;7.60;;;;;;;41.86;24.20;99475.97;4841482;29;20040;-44
2023/07/18 09:55:30;;;;;;;7.93;7.13;;;;;;;41.40;25.02;99489.38;4841811;29;20087;-44
2023/07/18 09:57:56;;;;;;;7.78;6.97;;;;;;;42.05;24.49;99482.88;4841550;29;20025;-47
2023/07/18 10:00:25;;;;;;;8.13;6.70;;;;;;;42.11;24.48;99470.00;4841334;29;20450;-47
2023/07/18 10:02:54;;;;;;;8.68;7.20;;;;;;;42.41;23.54;99475.88;4841769;29;20499;-44
2023/07/18 10:05:20;;;;;;;8.73;6.82;;;;;;;42.33;23.03;99470.41;4841636;29;20052;-49
2023/07/18 10:07:46;;;;;;;8.18;6.90;;;;;;;42.15;23.50;99462.34;4841695;29;20403;-48
2023/07/18 10:10:12;;;;;;;7.63;6.32;;;;;;;42.13;23.87;99459.19;4841200;29;20022;-44
2023/07/18 10:12:57;;;;;;;10.10;6.70;;;;;;;42.54;23.52;99457.28;4841658;29;20040;-48
2023/07/18 10:15:23;;;;;;;7.20;6.30;;;;;;;42.43;23.55;99446.28;4841943;29;20448;-45
2023/07/18 10:17:49;;;;;;;7.07;6.38;;;;;;;42.14;23.43;99437.63;4859944;29;20032;-47
2023/07/18 10:20:21;;;;;;;8.45;6.35;;;;;;;42.35;23.56;99430.88;4859842;29;20033;-45
2023/07/18 10:22:54;;;;;;;7.50;6.70;;;;;;;42.56;23.04;99426.91;4859952;29;20026;-45
2023/07/18 10:25:20;;;;;;;7.65;6.93;;;;;;;42.58;22.82;99419.66;4859498;29;20348;-45
2023/07/18 10:27:48;;;;;;;8.68;7.18;;;;;;;41.93;24.13;99436.75;4859420;29;20110;-46
2023/07/18 10:30:19;;;;;;;9.02;7.70;;;;;;;42.34;23.95;99423.69;4858784;29;20176;-47
2023/07/18 10:32:56;;;;;;;7.30;6.18;;;;;;;42.55;23.05;99412.09;4859606;29;20490;-45
2023/07/18 10:35:26;;;;;;;6.80;6.18;;;;;;;42.82;22.51;99416.75;4842680;29;20105;-44
2023/07/18 10:37:57;;;;;;;8.68;6.10;;;;;;;43.13;22.49;99414.53;4859815;29;20033;-47
2023/07/18 10:40:43;;;;;;;9.70;6.25;;;;;;;43.36;22.38;99418.44;4859400;29;20026;-45
2023/07/18 10:43:15;;;;;;;8.75;6.43;;;;;;;43.82;21.67;99410.97;4859372;29;20506;-45
2023/07/18 10:45:42;;;;;;;7.28;6.55;;;;;;;43.30;22.30;99423.00;4859322;29;20048;-48
2023/07/18 10:48:15;;;;;;;6.88;6.18;;;;;;;42.69;22.40;99401.84;4859703;29;20101;-45
2023/07/18 10:50:42;;;;;;;7.18;6.30;;;;;;;42.07;22.88;99402.22;4859621;29;20025;-46
2023/07/18 10:53:11;;;;;;;7.68;6.35;;;;;;;42.20;23.27;99407.97;4859371;29;20030;-43
2023/07/18 10:55:37;;;;;;;8.38;6.40;;;;;;;41.96;23.21;99407.94;4859268;29;20029;-44
2023/07/18 10:58:09;;;;;;;6.88;6.18;;;;;;;42.57;22.91;99403.28;4859142;29;20032;-44
2023/07/18 11:00:34;;;;;;;9.88;6.10;;;;;;;42.82;22.37;99399.97;4859106;29;20036;-46
2023/07/18 11:02:59;;;;;;;7.70;6.18;;;;;;;42.57;23.11;99392.91;4858542;29;20127;-45
2023/07/18 11:05:25;;;;;;;6.82;6.05;;;;;;;42.36;23.27;99388.47;4858910;29;20165;-42
2023/07/18 11:07:50;;;;;;;8.48;5.82;;;;;;;42.16;22.84;99391.28;4858252;29;20418;-45
2023/07/18 11:10:17;;;;;;;7.68;6.00;;;;;;;41.75;23.73;99388.78;4858546;29;20090;-46
2023/07/18 11:12:43;;;;;;;6.88;6.07;;;;;;;41.98;23.42;99390.75;4858963;29;20026;-44
2023/07/18 11:15:10;;;;;;;7.13;6.05;;;;;;;42.14;23.20;99392.91;4859016;29;20033;-46
2023/07/18 11:17:38;;;;;;;6.80;6.10;;;;;;;42.77;22.90;99381.69;4858493;29;20029;-45
2023/07/18 11:20:04;;;;;;;;;;;;;;;43.03;22.18;99389.56;4859593;29;20463;-44
2023/07/18 11:22:30;;;;;;;6.60;5.75;;;;;;;42.66;23.32;99374.75;4858903;29;19912;-45
2023/07/18 11:24:55;;;;;;;6.28;5.18;;;;;;;42.56;21.96;99370.97;4858825;29;20022;-46
2023/07/18 11:27:25;;;;;;;5.65;4.95;;;;;;;42.60;22.46;99374.47;4858455;29;20147;-44
2023/07/18 11:29:57;;;;;;;6.55;5.15;;;;;;;42.69;21.88;99371.09;4858353;29;20037;-47
2023/07/18 11:32:38;;;;;;;7.43;5.43;;;;;;;41.78;22.71;99369.16;4858713;29;20025;-44
2023/07/18 11:35:06;;;;;;;6.78;5.40;;;;;;;41.72;23.23;99370.09;4858895;29;20159;-44
2023/07/18 11:37:33;;;;;;;7.35;6.22;;;;;;;41.39;24.11;99378.97;4858885;29;20406;-44
2023/07/18 11:39:59;;;;;;;7.13;5.57;;;;;;;40.24;25.12;99371.97;4858341;29;20553;-45
2023/07/18 11:42:42;;;;;;;8.07;5.53;;;;;;;40.50;24.24;99363.34;4858426;29;20178;-44
2023/07/18 11:45:09;;;;;;;5.78;5.20;;;;;;;40.55;24.49;99365.69;4858568;29;20351;-46
2023/07/18 11:47:37;;;;;;;6.05;4.68;;;;;;;40.81;23.77;99367.00;4858306;29;20174;-44
2023/07/18 11:50:08;;;;;;;6.00;4.95;;;;;;;41.28;23.29;99338.44;4858170;29;20065;-48
2023/07/18 11:52:33;;;;;;;7.07;6.30;;;;;;;40.97;23.83;99358.78;4857827;29;20037;-44
2023/07/18 11:54:59;;;;;;;6.50;5.53;;;;;;;40.34;24.04;99355.59;4858643;29;20040;-43
2023/07/18 11:57:24;;;;;;;6.03;5.43;;;;;;;40.65;24.10;99354.41;4858497;29;20570;-44
2023/07/18 11:59:50;;;;;;;5.13;4.63;;;;;;;40.51;23.75;99351.00;4857725;29;20025;-45
2023/07/18 12:02:15;;;;;;;7.07;4.97;;;;;;;40.86;23.39;99344.22;4857524;29;20447;-46
2023/07/18 12:04:40;;;;;;;7.55;5.10;;;;;;;40.51;23.55;99360.16;4857959;29;20138;-42
2023/07/18 12:07:06;;;;;;;6.80;5.30;;;;;;;40.46;23.19;99352.25;4857683;29;20028;-43
2023/07/18 12:09:32;;;;;;;6.70;5.07;;;;;;;40.50;23.13;99347.44;4857932;29;20028;-46
2023/07/18 12:11:57;;;;;;;5.38;4.80;;;;;;;40.85;23.05;99345.44;4857639;29;20030;-44
2023/07/18 12:14:23;;;;;;;6.93;4.82;;;;;;;41.37;22.93;99355.44;4857367;29;20117;-45
2023/07/18 12:16:48;;;;;;;7.63;4.97;;;;;;;41.62;22.15;99343.91;4857806;29;20040;-44
2023/07/18 12:19:14;;;;;;;5.45;4.57;;;;;;;40.71;23.13;99351.97;4857453;29;20181;-44
2023/07/18 12:21:39;;;;;;;5.75;4.63;;;;;;;40.56;23.64;99348.56;4857445;29;20062;-44
2023/07/18 12:24:05;;;;;;;5.57;4.82;;;;;;;40.64;24.04;99349.25;4857743;29;20029;-44
2023/07/18 12:26:30;;;;;;;6.00;5.28;;;;;;;40.72;23.66;99341.59;4858092;29;20041;-46
2023/07/18 12:28:56;;;;;;;6.32;5.60;;;;;;;40.74;23.97;99337.16;4856939;29;20161;-45
2023/07/18 12:31:21;;;;;;;6.60;5.22;;;;;;;41.01;24.62;99337.25;4857766;29;20036;-44
2023/07/18 12:33:46;;;;;;;8.07;5.47;;;;;;;41.57;23.72;99334.00;4857773;29;20028;-45
2023/07/18 12:36:12;;;;;;;6.88;5.13;;;;;;;41.43;23.92;99339.78;4857835;29;20026;-45
2023/07/18 12:38:38;;;;;;;5.35;4.85;;;;;;;41.08;23.10;99338.34;4857717;29;20112;-44
2023/07/18 12:41:03;;;;;;;6.18;4.60;;;;;;;41.47;23.02;99326.59;4857472;29;20029;-46
2023/07/18 12:43:28;;;;;;;5.15;4.68;;;;;;;41.72;22.66;99331.78;4857722;29;20025;-44
2023/07/18 12:45:55;;;;;;;8.13;5.00;;;;;;;41.00;23.25;99337.66;4858189;29;20398;-48
2023/07/18 12:48:21;;;;;;;6.15;4.82;;;;;;;41.15;22.93;99335.44;4857432;29;20033;-46
2023/07/18 12:50:46;;;;;;;6.60;5.10;;;;;;;40.93;23.22;99334.97;4857630;29;20029;-45
2023/07/18 12:53:12;;;;;;;5.30;4.80;;;;;;;40.77;22.25;99333.56;4857709;29;20029;-45
2023/07/18 12:55:37;;;;;;;6.45;4.97;;;;;;;40.56;22.48;99331.84;4858034;29;20177;-45
2023/07/18 12:58:02;;;;;;;6.10;4.88;;;;;;;40.82;22.00;99333.13;4858299;29;20054;-43
2023/07/18 13:00:28;;;;;;;5.45;4.85;;;;;;;40.78;22.63;99337.94;4858597;29;20061;-43
2023/07/18 13:02:54;;;;;;;6.35;4.45;;;;;;;41.83;22.22;99325.19;4858031;29;20037;-43
2023/07/18 13:05:19;;;;;;;5.88;5.32;;;;;;;42.06;21.63;99327.19;4857581;29;20693;-43
2023/07/18 13:07:44;;;;;;;7.72;4.80;;;;;;;42.01;22.19;99331.25;4840806;29;20030;-44
2023/07/18 13:10:10;;;;;;;8.40;4.43;;;;;;;41.83;22.52;99325.97;4857245;29;20029;-45
2023/07/18 13:12:35;;;;;;;8.27;4.88;;;;;;;41.85;22.00;99323.56;4857263;29;20100;-44
2023/07/18 13:15:01;;;;;;;9.50;4.70;;;;;;;41.81;22.45;99320.03;4857417;29;20037;-44
2023/07/18 13:17:27;;;;;;;5.72;4.20;;;;;;;41.17;22.22;99328.22;4857628;29;20070;-43
2023/07/18 13:19:53;;;;;;;6.38;4.45;;;;;;;40.64;24.01;99326.94;4857482;29;20413;-44
2023/07/18 13:22:19;;;;;;;6.03;5.00;;;;;;;40.47;24.46;99328.75;4857836;29;20034;-46
2023/07/18 13:24:44;;;;;;;5.95;4.93;;;;;;;40.60;24.34;99321.41;4857279;29;20025;-43
2023/07/18 13:27:10;;;;;;;7.43;4.70;;;;;;;39.47;25.01;99306.25;4857594;29;20026;-43
2023/07/18 13:29:35;;;;;;;7.28;4.40;;;;;;;40.10;24.61;99310.03;4857631;29;20459;-44
2023/07/18 13:32:01;;;;;;;8.20;4.40;;;;;;;40.49;23.83;99317.19;4857045;29;20037;-45
2023/07/18 13:34:27;;;;;;;8.27;4.55;;;;;;;41.03;22.47;99323.66;4857241;29;20033;-44
2023/07/18 13:36:52;;;;;;;6.47;4.50;;;;;;;40.55;22.99;99326.66;4857383;29;20379;-43
2023/07/18 13:39:18;;;;;;;8.85;4.75;;;;;;;40.02;24.31;99312.94;4856977;29;20042;-43
2023/07/18 13:41:43;;;;;;;6.50;4.57;;;;;;;40.00;24.94;99320.09;4860497;29;20029;-44
2023/07/18 13:44:09;;;;;;;6.40;4.85;;;;;;;40.12;25.06;99318.78;4860728;29;20085;-43
2023/07/18 13:46:35;;;;;;;7.78;4.50;;;;;;;40.02;24.91;99312.94;4860791;29;20053;-44
2023/07/18 13:49:01;;;;;;;6.25;4.68;;;;;;;40.30;25.09;99313.00;4861367;29;20128;-45
2023/07/18 13:51:26;;;;;;;5.63;4.32;;;;;;;40.06;24.24;99324.00;4860623;29;20483;-43
2023/07/18 13:53:52;;;;;;;6.30;4.40;;;;;;;39.88;24.21;99315.81;4861162;29;20044;-42
2023/07/18 13:56:18;;;;;;;5.63;4.60;;;;;;;40.24;23.95;99321.81;4860703;29;20113;-42
2023/07/18 13:58:44;;;;;;;5.60;4.32;;;;;;;40.76;23.55;99315.25;4860834;29;20025;-42
2023/07/18 14:01:09;;;;;;;8.68;4.60;;;;;;;40.57;23.33;99307.53;4860414;29;20057;-42
2023/07/18 14:03:35;;;;;;;6.65;4.85;;;;;;;40.96;23.16;99306.22;4860970;29;20064;-43
2023/07/18 14:06:00;;;;;;;5.60;4.70;;;;;;;41.17;23.09;99311.47;4860400;29;20022;-41
2023/07/18 14:08:27;;;;;;;10.60;4.60;;;;;;;40.94;23.13;99309.44;4860608;29;20032;-43
2023/07/18 14:10:53;;;;;;;5.35;4.28;;;;;;;40.42;23.81;99309.69;4860041;29;20033;-45
2023/07/18 14:13:18;;;;;;;9.45;4.25;;;;;;;40.59;24.40;99297.53;4860352;29;20033;-44
2023/07/18 14:15:44;;;;;;;5.15;3.75;;;;;;;40.83;23.55;99309.59;4860057;29;20026;-44
2023/07/18 14:18:10;;;;;;;5.53;4.18;;;;;;;40.98;23.54;99296.22;4860661;29;20109;-43
2023/07/18 14:20:35;;;;;;;5.05;4.40;;;;;;;41.60;22.71;99296.84;4860496;29;20029;-44
2023/07/18 14:23:00;;;;;;;9.23;5.30;;;;;;;41.78;22.24;99301.34;4860708;29;20498;-44
2023/07/18 14:25:26;;;;;;;6.85;4.40;;;;;;;41.07;23.51;99311.63;4843420;29;20037;-42
2023/07/18 14:27:53;;;;;;;6.40;4.65;;;;;;;40.80;24.23;99310.44;4840711;29;20054;-44
2023/07/18 14:30:18;;;;;;;7.65;4.10;;;;;;;40.88;23.71;99304.75;4841883;29;20032;-43
2023/07/18 14:32:44;;;;;;;7.35;4.03;;;;;;;40.74;23.21;99306.50;4841632;29;20030;-43
2023/07/18 14:35:09;;;;;;;8.13;3.90;;;;;;;40.55;22.53;99319.09;4841705;29;20479;-44
2023/07/18 14:37:36;;;;;;;5.95;3.83;;;;;;;40.68;21.97;99312.97;4841577;29;20064;-44
2023/07/18 14:40:04;;;;;;;6.25;3.80;;;;;;;40.22;22.98;99315.88;4841396;29;20086;-43
2023/07/18 14:42:33;;;;;;;6.57;4.05;;;;;;;40.35;22.68;99307.81;4840855;29;20053;-43
2023/07/18 14:44:59;;;;;;;4.78;3.53;;;;;;;40.59;22.84;99311.47;4841380;29;20018;-44
2023/07/18 14:47:26;;;;;;;6.72;4.00;;;;;;;40.86;22.58;99309.94;4841341;29;20029;-43
2023/07/18 14:49:51;;;;;;;5.10;3.80;;;;;;;41.15;22.46;99319.50;4841603;29;20048;-44
2023/07/18 14:52:18;;;;;;;4.95;3.90;;;;;;;41.22;22.43;99304.66;4840209;29;20649;-44
2023/07/18 14:54:44;;;;;;;6.85;3.85;;;;;;;41.48;22.24;99307.84;4840974;29;20026;-46
2023/07/18 14:57:09;;;;;;;6.35;4.10;;;;;;;41.04;23.16;99308.47;4841235;29;20032;-44
2023/07/18 14:59:34;;;;;;;9.93;3.97;;;;;;;40.65;23.34;99318.19;4841315;29;20025;-44
2023/07/18 15:02:00;;;;;;;7.50;3.95;;;;;;;41.10;22.57;99316.38;4840921;29;20216;-47
2023/07/18 15:04:26;;;;;;;5.57;4.43;;;;;;;40.57;22.69;99315.88;4841330;29;20080;-44
2023/07/18 15:06:53;;;;;;;4.60;4.10;;;;;;;40.54;22.95;99316.75;4840980;29;20022;-44
2023/07/18 15:09:20;;;;;;;7.33;4.43;;;;;;;40.52;23.30;99316.34;4839882;29;20733;-43
2023/07/18 15:11:48;;;;;;;6.30;4.55;;;;;;;40.73;22.92;99326.44;4838341;29;20033;-44
2023/07/18 15:14:15;;;;;;;5.80;4.60;;;;;;;40.59;22.86;99322.63;4841076;29;20116;-44
2023/07/18 15:16:40;;;;;;;5.03;4.53;;;;;;;40.46;22.85;99321.59;4841085;29;20056;-45
2023/07/18 15:19:06;;;;;;;5.28;4.30;;;;;;;40.89;22.79;99321.06;4840815;29;20423;-45
2023/07/18 15:21:32;;;;;;;8.80;4.40;;;;;;;41.22;22.47;99318.59;4857054;29;20033;-46
2023/07/18 15:23:57;;;;;;;5.78;4.20;;;;;;;41.24;22.35;99330.13;4858157;29;20037;-44
2023/07/18 15:26:23;;;;;;;5.90;4.40;;;;;;;41.26;22.50;99333.31;4858118;29;20028;-44
2023/07/18 15:28:49;;;;;;;6.60;4.40;;;;;;;41.00;22.20;99326.50;4858304;29;20596;-45
2023/07/18 15:31:14;;;;;;;6.22;4.40;;;;;;;40.82;21.92;99335.09;4858604;29;20478;-45
2023/07/18 15:33:40;;;;;;;6.68;4.50;;;;;;;40.64;21.68;99333.31;4858850;29;20483;-44
2023/07/18 15:36:05;;;;;;;6.43;4.55;;;;;;;40.52;22.19;99341.44;4859083;29;20468;-45
2023/07/18 15:38:31;;;;;;;5.55;4.15;;;;;;;40.15;21.97;99332.66;4859078;29;20064;-45
2023/07/18 15:40:57;;;;;;;5.47;4.15;;;;;;;39.87;22.86;99333.72;4859170;29;20037;-44
2023/07/18 15:43:23;;;;;;;5.07;4.57;;;;;;;39.91;22.93;99334.53;4858871;29;20044;-43
2023/07/18 15:45:49;;;;;;;5.10;4.30;;;;;;;40.11;22.59;99343.06;4857251;29;20029;-43
2023/07/18 15:48:15;;;;;;;5.63;4.03;;;;;;;39.98;23.10;99342.00;4840469;29;20030;-43
2023/07/18 15:50:41;;;;;;;6.07;4.22;;;;;;;39.90;23.24;99337.72;4840491;29;20040;-44
2023/07/18 15:53:07;;;;;;;7.75;4.30;;;;;;;39.53;23.65;99337.22;4840684;29;20059;-42
2023/07/18 15:55:32;;;;;;;6.20;4.03;;;;;;;39.59;23.30;99340.34;4840551;29;20042;-45
2023/07/18 15:57:58;;;;;;;6.03;4.13;;;;;;;39.64;23.93;99337.94;4840346;29;20077;-43
2023/07/18 16:00:23;;;;;;;6.55;4.20;;;;;;;39.53;23.55;99337.22;4840253;29;20038;-46
2023/07/18 16:02:49;;;;;;;4.97;4.00;;;;;;;39.47;24.03;99336.06;4840143;29;20030;-45
2023/07/18 16:05:15;;;;;;;8.00;4.22;;;;;;;39.16;24.42;99346.19;4840496;29;20018;-45
2023/07/18 16:07:41;;;;;;;6.38;4.38;;;;;;;39.04;24.95;99342.69;4840269;29;20411;-44
2023/07/18 16:10:07;;;;;;;5.53;4.35;;;;;;;39.21;24.74;99341.00;4839590;29;20467;-42
2023/07/18 16:12:32;;;;;;;5.38;4.35;;;;;;;39.33;24.23;99336.16;4840165;29;20482;-45
2023/07/18 16:14:58;;;;;;;7.20;4.25;;;;;;;39.31;23.56;99347.69;4840185;29;20436;-46
2023/07/18 16:17:24;;;;;;;5.97;4.70;;;;;;;38.95;24.38;99342.31;4840248;29;20034;-43
2023/07/18 16:19:51;;;;;;;5.82;4.63;;;;;;;38.81;24.47;99339.63;4842263;29;20057;-45
2023/07/18 16:22:17;;;;;;;9.48;4.22;;;;;;;38.77;24.49;99345.19;4858634;29;20037;-44
2023/07/18 16:24:45;;;;;;;5.60;4.20;;;;;;;38.83;24.00;99343.56;4858271;29;20025;-42
2023/07/18 16:27:11;;;;;;;5.43;4.00;;;;;;;39.00;23.91;99346.69;4858222;29;20041;-44
2023/07/18 16:29:37;;;;;;;5.15;4.65;;;;;;;39.43;23.63;99340.84;4858308;29;20040;-44
2023/07/18 16:32:02;;;;;;;5.50;4.40;;;;;;;38.74;24.07;99345.22;4858171;29;20040;-45
2023/07/18 16:34:28;;;;;;;11.35;9.75;;;;;;;38.65;24.39;99348.41;4858279;29;20029;-45
2023/07/18 16:36:55;;;;;;;8.18;5.00;;;;;;;38.59;24.48;99342.47;4858122;29;20531;-42
2023/07/18 16:39:20;;;;;;;6.35;4.38;;;;;;;38.90;24.24;99348.31;4848220;29;20025;-44
2023/07/18 16:41:46;;;;;;;5.70;4.22;;;;;;;39.04;24.00;99344.69;4839484;29;20360;-43
2023/07/18 16:44:13;;;;;;;6.15;4.30;;;;;;;39.24;23.37;99348.53;4839115;29;20037;-43
2023/07/18 16:46:40;;;;;;;5.05;4.15;;;;;;;39.21;24.12;99354.13;4839742;29;20018;-44
2023/07/18 16:49:05;;;;;;;5.47;3.78;;;;;;;38.85;23.93;99348.72;4839729;29;20037;-43
2023/07/18 16:51:31;;;;;;;7.10;3.78;;;;;;;38.85;23.98;99349.50;4839298;29;20034;-48
2023/07/18 16:53:56;;;;;;;6.80;4.30;;;;;;;39.06;23.79;99356.97;4839464;29;20038;-43
2023/07/18 16:56:23;;;;;;;7.20;4.40;;;;;;;39.01;23.73;99357.41;4839403;29;20029;-43
2023/07/18 16:58:50;;;;;;;8.48;4.45;;;;;;;39.00;23.57;99352.25;4839224;29;20042;-44
2023/07/18 17:01:19;;;;;;;5.22;4.10;;;;;;;38.26;24.47;99354.88;4839582;29;20042;-44
2023/07/18 17:03:44;;;;;;;5.75;4.43;;;;;;;38.64;24.10;99355.19;4839413;29;20106;-44